Regional Weather Synopsis
Issued by NWS Denver/Boulder, CO

Home | Current Version | Previous Version | Text Only | Print | Product List | Glossary On
Versions: 1 2 3 4 5 6 7 8 9 10 11 12 13 14 15 16 17 18 19 20 21 22 23 24 25 26 27 28 29 30 31 32 33 34 35 36 37 38 39 40 41 42 43 44 45 46 47 48 49 50
000
NZUS99 KBOU 271226
SYNBOU

Hot-Air Balloon Forecast for Colorado
National Weather Service Denver/Boulder, Colorado
0625 MDT Friday, May 27, 2022


* * * * * Northeast Colorado * * * * *

METAR KFNL 271156Z 11005KT 10SM CLR 12/03 A3002 RMK AO2 SLP107 T01220028
       10161 20100 57007
METAR KFNL 271056Z 00000KT 10SM CLR 12/03 A3003 RMK AO2 SLP113
       T01170033
METAR KFNL 270956Z 03005KT 10SM CLR 13/03 A3003 RMK AO2 SLP112
       T01280028

METAR KGXY 271156Z 00000KT 10SM CLR 08/03 A3002 RMK AO2 SLP134 7////
       T00830028 10156 20072 55002 $
METAR KGXY 271056Z 35003KT 10SM CLR 07/02 A3002 RMK AO2 SLP134 T00720022
       $
METAR KGXY 270956Z 29005KT 10SM CLR 09/02 A3002 RMK AO2 SLP133 T00890022
       $

METAR KLMO 271215Z AUTO 00000KT 10SM CLR 10/05 A3005 RMK AO2
       T01000047
METAR KLMO 271155Z AUTO 00000KT 10SM CLR 10/05 A3005 RMK AO2 T01030051
       10168 20096
METAR KLMO 271135Z AUTO 06003KT 10SM CLR 10/05 A3004 RMK AO2
       T01040050

METAR KBDU 271215Z AUTO 18005KT 10SM CLR 14/00 A3003 RMK AO2
METAR KBDU 271155Z AUTO 18004KT 10SM CLR 13/00 A3003 RMK AO2
METAR KBDU 271135Z AUTO 00000KT 10SM CLR 13/00 A3003 RMK AO2

METAR KEIK 271215Z AUTO 21003KT 10SM CLR 10/03 A3004 RMK AO2 T00970028
       PWINO
METAR KEIK 271155Z AUTO 21005KT 10SM CLR 09/03 A3004 RMK AO2 T00940025
       10140 20082 PWINO
METAR KEIK 271135Z AUTO 20004KT 10SM CLR 09/03 A3004 RMK AO2 T00900026
       PWINO

KBJC 271125Z 2712/2812 26003KT P6SM FEW150 BKN200
     FM271800 28013G20KT P6SM VCSH BKN100
     FM280000 26010KT P6SM SCT100 BKN200
     FM280300 28008KT P6SM FEW100
METAR KBJC 271155Z 26006KT 10SM FEW150 13/01 A3007
METAR KBJC 271135Z AUTO 26004KT 10SM CLR 13/M01 A3007 RMK AO2
METAR KBJC 271115Z AUTO 26004KT 10SM CLR 15/M01 A3007 RMK AO2

KDEN 271125Z 2712/2818 21011KT P6SM FEW150 BKN200
     FM271800 26008KT P6SM FEW150 BKN200
     FM272000 26011KT P6SM VCSH BKN100
     FM280000 13009KT P6SM SCT100 BKN200
     FM280400 21011KT P6SM FEW100
     FM281400 24014KT P6SM BKN200
METAR KDEN 271153Z 22010KT 10SM SCT200 BKN250 16/01 A3005 RMK AO2 SLP096
       T01560011 10183 20128 55003
METAR KDEN 271053Z 21012KT 10SM SCT200 BKN250 17/01 A3005 RMK AO2 SLP094
       T01670011
METAR KDEN 270953Z 21010KT 10SM FEW220 16/02 A3005 RMK AO2 SLP096
       T01560017


KBKF 270900Z 2709/2815 VRB06KT 9999 FEW160 QNH3002INS
     BECMG 2719/2720 25010G15KT 9999 SKC 520083 QNH2991INS
     BECMG 2802/2803 VRB06KT 9999 FEW170 510083 QNH2980INS TX30/2722Z
     TN12/2711Z
METAR KBKF 271158Z 18005KT 10SM FEW110 SCT220 13/01 A3007 RMK AO2A
        SLP111 T01260013 10174 20126 55001
METAR KBKF 271058Z 20012KT 10SM FEW220 15/01 A3006 RMK AO2A SLP105
        T01450007
METAR KBKF 270958Z 19013KT 10SM FEW220 15/01 A3007 RMK AO2A SLP109
        T01520010

KAPA 271125Z 2712/2812 18008KT P6SM FEW150 BKN200
     FM271900 25012KT P6SM VCSH BKN100
     FM280000 17010KT P6SM SCT100 BKN200
     FM280300 22006KT P6SM FEW100
METAR KAPA 271153Z 17007KT 10SM SCT220 14/01 A3008 RMK AO2 SLP123
       T01390011 10178 20122 55001
METAR KAPA 271053Z 16003KT 10SM SCT220 13/01 A3008 RMK AO2 SLP122
       T01330011
METAR KAPA 270953Z 11007KT 10SM SCT220 12/02 A3008 RMK AO2 SLP126
       T01220017

METAR KMNH 271215Z AUTO 20008KT 10SM CLR 11/M35 A3019 RMK AO2
METAR KMNH 271155Z AUTO 20007KT 10SM CLR 11/M35 A3019 RMK AO2
METAR KMNH 271135Z AUTO 20008KT 10SM CLR 10/M33 A3019 RMK AO2

METAR KFMM 271215Z AUTO 00000KT 10SM CLR 10/03 A3001 RMK AO2
METAR KFMM 271155Z AUTO 27003KT 10SM CLR 10/02 A3001 RMK AO2
METAR KFMM 271135Z AUTO 30004KT 10SM CLR 10/02 A3001 RMK AO2

METAR KSTK 271215Z AUTO 18003KT 10SM CLR 07/03 A2999 RMK AO2
METAR KSTK 271155Z AUTO 23004KT 10SM CLR 05/02 A2998 RMK AO2
METAR KSTK 271135Z AUTO 20003KT 10SM CLR 06/02 A2998 RMK AO2

METAR KAKO 271153Z AUTO 21013KT 10SM CLR 17/00 A3001 RMK AO2 SLP107
       T01670000 10178 20156 55002 $
METAR KAKO 271053Z AUTO 21011KT 10SM CLR 16/00 A3001 RMK AO2 SLP107
       T01610000 $
METAR KAKO 270953Z AUTO 22013KT 10SM CLR 16/01 A3001 RMK AO2 SLP107
       T01610006 $

METAR KLIC 271155Z AUTO 09003KT 10SM CLR 12/03 A3008 RMK AO2 SLP117
       T01170028 10161 20083 55003
METAR KLIC 271055Z AUTO 23003KT 10SM CLR 09/03 A3008 RMK AO2 SLP120
       T00890028
METAR KLIC 270955Z AUTO 12004KT 10SM CLR 13/02 A3009 RMK AO2 SLP117
       T01330017

METAR KHEQ 271215Z AUTO 25005KT 10SM CLR 11/04 A2999 RMK AO2
METAR KHEQ 271155Z AUTO 26005KT 10SM CLR 09/02 A2999 RMK AO2
METAR KHEQ 271135Z AUTO 26005KT 10SM CLR 09/03 A2999 RMK AO2

METAR K2V6 271219Z AUTO 23012KT 10SM CLR 14/M04 A3000 RMK AO2
METAR K2V6 271159Z AUTO 23010KT 10SM CLR 13/M04 A2999 RMK AO2
METAR K2V6 271139Z AUTO 22012KT 10SM CLR 13/M05 A2999 RMK AO2

METAR K2V5 271215Z AUTO 00000KT 10SM CLR 08/03 A3000 RMK AO2
METAR K2V5 271155Z AUTO 00000KT 10SM CLR 07/03 A2999 RMK AO2
METAR K2V5 271135Z AUTO 33008KT 10SM CLR 06/02 A2999 RMK AO2

METAR KITR 271153Z AUTO 23011KT 10SM CLR 15/04 A3003 RMK AO2 SLP118
       T01500044 10156 20117 55002
METAR KITR 271053Z AUTO 23011KT 10SM CLR 15/04 A3002 RMK AO2 SLP116
       T01500039
METAR KITR 270953Z AUTO 23013KT 10SM CLR 16/04 A3002 RMK AO2 SLP115
       T01560044

Sunrise/Sunset for 05/27/2022
Fort Collins - 05:34:09 MDT / 20:20:48 MDT
Denver       - 05:36:10 MDT / 20:17:56 MDT
Sterling     - 05:26:27 MDT / 20:13:40 MDT

Denver/Boulder (KFTG) 05/27/22 12:16 UTC
Radar VAD winds      Height      Dir/Spd(kt)
                   8100 FT MSL...188/010
                   8000 FT MSL...185/020
                   7300 FT MSL...187/018
                   7000 FT MSL...195/018

Denver/Boulder Aviation Discussion
Issued at 0952 UTC Friday, May 27, 2022

.AVIATION...(For the 12Z TAFS through 12Z Saturday morning)
Issued at 337 AM MDT Fri May 27 2022
VFR through tonight. Isolated showers are expected 20z-24z and
could produce localized brief wind gusts to 35 knots, but the odds
at any location appear to be low.


* * * * * Southeast Colorado * * * * *

METAR K4BM 271215Z AUTO 20008KT 10SM CLR 07/M08 A3049 RMK AO2
METAR K4BM 271155Z AUTO 20006KT 10SM CLR 08/M08 A3049 RMK AO2
METAR K4BM 271135Z AUTO 20008KT 170V230 10SM CLR 07/M07 A3049 RMK
       AO2

METAR KAFF 271158Z AUTO 01011KT 10SM CLR 07/01 A3015 RMK AO2 SLP144
        T00650014 10086 20054 55002
METAR KAFF 271058Z AUTO 01011KT 10SM CLR 06/01 A3014 RMK AO2 SLP140
        T00590014
METAR KAFF 270958Z AUTO 01010KT 10SM CLR 06/02 A3015 RMK AO2 SLP144
        T00620021

KCOS 271127Z 2712/2812 35007KT P6SM FEW250
     FM271600 18008KT P6SM FEW140 SCT250
     FM272000 22014G24KT P6SM VCSH SCT090 BKN140
     FM280200 13008KT P6SM FEW140 SCT250
     FM280500 36007KT P6SM BKN250
METAR KCOS 271154Z 35006KT 10SM SCT200 BKN250 11/02 A3014 RMK AO2 SLP133
       T01110022 10178 20100 55004
METAR KCOS 271054Z 36005KT 10SM BKN250 11/03 A3014 RMK AO2 SLP132
       T01060028
METAR KCOS 270954Z 03006KT 10SM CLR 11/03 A3014 RMK AO2 SLP135
       T01060028

METAR KABH 271158Z AUTO 00000KT 10SM CLR 09/03 A3014 RMK AO2 SLP146
        T00890027 10147 20085 55003
METAR KABH 271058Z AUTO 00000KT 10SM CLR 10/02 A3014 RMK AO2 SLP146
        T00960015
METAR KABH 270958Z AUTO 00000KT 10SM CLR 10/03 A3014 RMK AO2 SLP146
        T00990027

METAR KFLY 271213Z AUTO 35006KT 10SM CLR 11/01 A3019 RMK AO2
       T01080005
METAR KFLY 271153Z AUTO 34008KT 10SM CLR 11/00 A3019 RMK AO2 T01050004
       10131 20082
METAR KFLY 271133Z AUTO 30006KT 10SM CLR 10/00 A3018 RMK AO2
       T01000004

METAR KFCS 271158Z 35006KT 10SM SCT200 BKN250 11/02 A3014 RMK A02A
        SLP133 WND DATA SLP ESTMD ALSTG ESTMD $
METAR KFCS 271205Z 36005KT 10SM BKN250 11/03 A3014 RMK A02A SLP132 WND
       DATA SLP ESTMD ALSTG ESTMD $
METAR KFCS 270958Z 03006KT 10SM CLR 11/03 A3014 RMK A02A SLP135 WND
        DATA SLP ESTMD ALSTG ESTMD $

KPUB 271127Z 2712/2812 30006KT P6SM FEW250
     FM271600 29011KT P6SM SCT250
     FM272000 32012G22KT P6SM SCT100 SCT250
      TEMPO 2721/2723 VRB20G30KT -SHRA BKN100
     FM272300 33012G22KT P6SM BKN120
     FM280200 VRB06KT P6SM SCT200
METAR KPUB 271153Z 26006KT 10SM CLR 11/06 A3007 RMK AO2 SLP129 T01060061
       10150 20094 53004
METAR KPUB 271053Z AUTO 33008KT 10SM CLR 09/07 A3005 RMK AO2 SLP125
       T00940067
METAR KPUB 270953Z AUTO 27006KT 10SM CLR 11/07 A3005 RMK AO2 SLP123
       T01110067

METAR KVTP 271215Z AUTO 26011G17KT 10SM CLR 08/M11 A3040 RMK AO2
METAR KVTP 271155Z AUTO 27011G16KT 10SM CLR 08/M10 A3040 RMK AO2
METAR KVTP 271135Z AUTO 26009KT 10SM CLR 08/M10 A3040 RMK AO2

METAR KTAD 271154Z AUTO 24012KT 10SM CLR 14/M01 A3012 RMK AO2 SLP120
       T01441006 10167 20117 53002
METAR KTAD 271054Z AUTO 26010KT 10SM CLR 14/00 A3011 RMK AO2 SLP120
       T01390000
METAR KTAD 270954Z AUTO 26007KT 10SM CLR 14/00 A3011 RMK AO2 SLP118
       T01390000

METAR KLHX 271153Z AUTO 24010KT 10SM CLR 13/04 A3003 RMK AO2 SLP115
       T01280044 10206 20111 55002
METAR KLHX 271053Z AUTO 25009KT 10SM CLR 12/04 A3002 RMK AO2 SLP114
       T01220039
METAR KLHX 270953Z AUTO 14007KT 10SM CLR 15/04 A3002 RMK AO2 SLP113
       T01500039

METAR KLAA 271153Z AUTO 19013KT 10SM CLR 16/05 A3000 RMK AO2 SLP113
       T01560050 10178 20139 50000
METAR KLAA 271053Z AUTO 19011KT 10SM CLR 17/05 A3001 RMK AO2 SLP116
       T01670050
METAR KLAA 270953Z AUTO 20013KT 10SM CLR 17/04 A3001 RMK AO2 SLP115
       T01720044

METAR KSPD 271156Z AUTO 20012KT 15/04 A3007 RMK AO1 SLP123 T01500039
       10156 20111 56005
METAR KSPD 271056Z AUTO 21012KT 15/04 A3007 RMK AO1 SLP124 T01500039
METAR KSPD 270956Z AUTO 20012G18KT 16/04 A3008 RMK AO1 SLP124
       T01560044

Sunrise/Sunset for 05/27/2022
Burlington - 05:26:37 MDT / 20:05:58 MDT
Pueblo     - 05:38:56 MDT / 20:12:26 MDT
Lamar      - 05:31:25 MDT / 20:03:55 MDT

Pueblo (KPUX) 05/27/22 12:18 UTC
Radar VAD winds      Height      Dir/Spd(kt)
                   9000 FT MSL...202/015
                   8600 FT MSL...201/007
                   8000 FT MSL...218/009
                   7800 FT MSL...209/008
                   7000 FT MSL...224/008
                   7000 FT MSL...194/014
                   6400 FT MSL...214/014

Pueblo Aviation Discussion
Issued at 1033 UTC Friday, May 27, 2022

.AVIATION...(For the 12Z TAFS through 12Z Saturday morning)
Issued at 432 AM MDT Fri May 27 2022
VFR conditions anticipated during the next 24 hours at all 3 taf
sites, KPUB, KALS and KCOS.
There is a very slight chance of some isolated thunder, with locally
gusty winds possible in and near the convective activity. At this
time probability is quite low to explicitly mention in TAF attm.
Breezy south to southwest winds are expected at all 3 taf sites
during the afternoon time period.


* * * * * Northwest Colorado * * * * *

METAR KCAG 271153Z AUTO 23004KT 10SM CLR 04/01 A3009 RMK AO2 SLP135
       T00440011 10117 20033 56003
METAR KCAG 271053Z AUTO 00000KT 10SM CLR 05/01 A3009 RMK AO2 SLP133
       T00500011
METAR KCAG 270953Z AUTO 26004KT 10SM CLR 05/02 A3009 RMK AO2 SLP136
       T00500017

METAR KHDN 271156Z AUTO 11010KT 10SM CLR 08/01 A3013 RMK AO2 SLP134
       T00780006 10139 20078 56003
METAR KHDN 271056Z AUTO 10010KT 10SM CLR 09/01 A3013 RMK AO2 SLP134
       T00890006
METAR KHDN 270956Z AUTO 10010KT 10SM CLR 10/01 A3013 RMK AO2 SLP131
       T01000011

METAR KSBS 271215Z AUTO 00000KT 10SM CLR 06/00 A3015 RMK AO1
       T00550001
METAR KSBS 271155Z AUTO 00000KT 10SM CLR 06/00 A3015 RMK AO1 T00610000
       10112 20043
METAR KSBS 271135Z AUTO 00000KT 10SM CLR 06/00 A3015 RMK AO1
       T00600000

METAR KC07 271215Z AUTO 21003KT 10SM OVC090 09/M06 A3041 RMK AO2
METAR KC07 271155Z AUTO 20005KT 10SM BKN090 09/M06 A3041 RMK AO2
METAR KC07 271135Z AUTO 22003KT 10SM CLR 09/M06 A3041 RMK AO2


METAR KEEO 271153Z AUTO 06005KT 10SM CLR 06/00 A3011 RMK AO2 SLP122
       T00610000 10122 20050 55002
METAR KEEO 271053Z AUTO 06003KT 10SM CLR 06/00 A3011 RMK AO2 SLP123
       T00560000
METAR KEEO 270953Z AUTO 00000KT 10SM CLR 06/00 A3011 RMK AO2 SLP126
       T00610000

METAR K20V 271215Z AUTO 00000KT 10SM CLR 02/00 A3027 RMK AO2
METAR K20V 271155Z AUTO 00000KT 10SM CLR 01/00 A3027 RMK AO2
METAR K20V 271135Z AUTO 00000KT 10SM CLR 02/00 A3027 RMK AO2

METAR KGNB 271215Z AUTO 00000KT 10SM CLR 01/M02 A3030 RMK AO2
       T00081016
METAR KGNB 271155Z AUTO 12004KT 10SM CLR 02/M02 A3030 RMK AO2 T00171020
       10077 20012
METAR KGNB 271135Z AUTO 14004KT 10SM CLR 01/M02 A3030 RMK AO2
       T00141018

METAR K0CO 271215Z AUTO 29025G33KT CLR 04/M09 A3051 RMK AO2 PWINO
METAR K0CO 271155Z AUTO 29029G34KT CLR 04/M09 A3050 RMK AO2 PWINO
METAR K0CO 271135Z AUTO 29020G32KT CLR 04/M09 A3050 RMK AO2 PWINO

METAR KC99 271215Z AUTO 28007G15KT 260V320 10SM CLR 08/M08 A3041 RMK
       AO2
METAR KC99 271155Z AUTO 28008KT 10SM CLR 08/M09 A3042 RMK AO2
METAR KC99 271135Z AUTO 29007G18KT 10SM CLR 08/M09 A3042 RMK AO2

KGJT 271120Z 2712/2812 15006KT P6SM FEW150 SCT250
     FM271900 25015G25KT P6SM FEW150 SCT250
     FM280300 28010KT P6SM FEW150 SCT250
METAR KGJT 271153Z AUTO 13012KT 10SM CLR 14/M03 A3003 RMK AO2 SLP101
       T01391028 10200 20139 53010
METAR KGJT 271053Z AUTO 15009KT 10SM CLR 16/M03 A3001 RMK AO2 SLP092
       T01561028
METAR KGJT 270953Z AUTO 10011KT 10SM CLR 15/M03 A2999 RMK AO2 SLP087
       T01501033

KRIL 271120Z 2712/2812 VRB03KT P6SM FEW150 SCT250
     FM271900 26015G25KT P6SM FEW120 SCT250
     FM280200 21015G25KT P6SM SCT120 BKN250
METAR KRIL 271153Z AUTO 20003KT 10SM CLR 07/M02 A3011 RMK AO2 SLP137
       T00671022 10156 20061 53004
METAR KRIL 271053Z AUTO 00000KT 10SM CLR 08/M02 A3010 RMK AO2 SLP131
       T00781022
METAR KRIL 270953Z AUTO 00000KT 10SM CLR 08/M02 A3009 RMK AO2 SLP129
       T00831022

METAR K5SM 271215Z AUTO 23011G16KT 10SM CLR 07/M07 A3044 RMK AO2
METAR K5SM 271155Z AUTO 23010G18KT 10SM CLR 07/M08 A3044 RMK AO2
METAR K5SM 271135Z AUTO 23010G18KT 10SM CLR 07/M07 A3044 RMK AO2

KEGE 271120Z 2712/2812 VRB03KT P6SM FEW150 SCT250
     FM271900 25015G30KT P6SM FEW120 SCT250
     FM280300 22006KT P6SM SCT120 BKN250
METAR KEGE 271156Z AUTO 00000KT 10SM CLR 05/00 A3023 RMK AO2 SLP138
       6//// 7//// T00500000 10122 20050 53005
METAR KEGE 271056Z AUTO 00000KT 10SM CLR 06/00 A3022 RMK AO2 SLP135
       T00610000
METAR KEGE 270956Z AUTO 11005KT 10SM CLR 07/01 A3022 RMK AO2 SLP133
       T00670006

KASE 271120Z 2712/2812 20006KT P6SM FEW140 SCT200
     FM271700 32014G24KT P6SM FEW100 SCT250
     FM280300 20010KT P6SM FEW100 SCT250
METAR KASE 271153Z AUTO 21007KT 10SM CLR 07/M03 A3023 RMK AO2 SLP128
       T00671028 10106 20056 55002
METAR KASE 271053Z AUTO 20008KT 10SM CLR 07/M02 A3023 RMK AO2 SLP125
       T00671022
METAR KASE 270953Z AUTO 21006KT 10SM CLR 08/M03 A3023 RMK AO2 SLP123
       T00831028

METAR KCCU 271215Z AUTO 24013G19KT 10SM CLR 08/M08 A3052 RMK AO2
METAR KCCU 271155Z AUTO 25017G23KT 10SM CLR 08/M08 A3052 RMK AO2
METAR KCCU 271135Z AUTO 25014G20KT 10SM CLR 08/M07 A3052 RMK AO2

METAR KLXV 271153Z AUTO 07003KT 10SM CLR 01/M05 A3038 RMK AO2 SLP151
       T00111050 10033 21017 56004
METAR KLXV 271053Z AUTO VRB03KT 10SM CLR 00/M04 A3038 RMK AO2 SLP149
       T00001039
METAR KLXV 270953Z AUTO 04005KT 10SM CLR M01/M04 A3038 RMK AO2 SLP153
       T10061044

Sunrise/Sunset for 05/27/2022
Rangely           - 05:50:23 MDT / 20:34:15 MDT
Grand Junction    - 05:52:21 MDT / 20:30:28 MDT
Steamboat Springs - 05:41:24 MDT / 20:27:34 MDT

Grand Junction (KGJX) 05/27/22 12:04 UTC
Radar VAD winds      Height      Dir/Spd(kt)
                  15000 FT MSL...237/026
                  14500 FT MSL...252/017
                  14000 FT MSL...238/028
                  13000 FT MSL...237/030
                  12900 FT MSL...239/032
                  12000 FT MSL...239/030
                  11100 FT MSL...232/034
                  11000 FT MSL...241/028
                  10400 FT MSL...243/027
                  10300 FT MSL...233/030
                  10100 FT MSL...246/027

Grand Junction Aviation Discussion
Issued at 0958 UTC Friday, May 27, 2022

.AVIATION...(For the 12Z TAFS through 12Z Saturday morning)
Issued at 357 AM MDT Fri May 27 2022
VFR pattern persists through tonight with southwest winds
increasing throughout the day. Peak wind gusts from 25 to 35 kts
will occur between 18Z and 21Z this evening. Stronger winds are
expected on Saturday.


* * * * * Southwest Colorado * * * * *

METAR KAJZ 271215Z AUTO 08004KT 10SM CLR 13/M03 A3010 RMK AO2 T01321026
       PWINO
METAR KAJZ 271155Z AUTO 06009KT 10SM CLR 14/M02 A3009 RMK AO2 T01401023
       10184 20122 PWINO
METAR KAJZ 271135Z AUTO 03007KT 10SM CLR 13/M02 A3009 RMK AO2 T01271023
       PWINO

KMTJ 271120Z 2712/2812 15006KT P6SM FEW150 SCT250
     FM271700 25015G25KT P6SM FEW150 SCT250
     FM280200 18012KT P6SM FEW150 SCT250
METAR KMTJ 271153Z AUTO 16008KT 10SM CLR 12/M02 A3011 RMK AO2 SLP121
       T01221017 10183 20106 53005
METAR KMTJ 271053Z AUTO 15007KT 10SM CLR 12/M02 A3010 RMK AO2 SLP117
       T01171022
METAR KMTJ 270953Z AUTO 16007KT 10SM CLR 13/M02 A3009 RMK AO2 SLP111
       T01281022

METAR KGUC 271156Z AUTO 00000KT 10SM CLR 02/M03 A3032 RMK AO2 SLP202
       T00171028 10106 20011 53005 FZRANO
METAR KGUC 271056Z AUTO 00000KT 10SM CLR 02/M03 A3030 RMK AO2 SLP198
       T00221028 FZRANO
METAR KGUC 270956Z AUTO 00000KT 10SM CLR 04/M04 A3029 RMK AO2 SLP188
       T00391039

METAR K7BM 271215Z AUTO 00000KT 10SM CLR 11/ A3039 RMK AO2
METAR K7BM 271155Z AUTO 00000KT 10SM CLR 12/ A3039 RMK AO2
METAR K7BM 271135Z AUTO 12007KT 10SM CLR 11/ A3039 RMK AO2

METAR KAEJ 271215Z AUTO 32003KT 10SM 04/00 A3031 RMK AO2 T00401004
METAR KAEJ 271155Z AUTO 28009KT 10SM 04/00 A3030 RMK AO2 T00411005 10096
       20041
METAR KAEJ 271135Z AUTO 27005KT 10SM 04/00 A3030 RMK AO2 T00441005

METAR KANK 271215Z AUTO 00000KT 10SM CLR 07/01 A3037 RMK AO1
       T00730005
METAR KANK 271155Z AUTO 00000KT 10SM CLR 06/01 A3036 RMK AO1 7////
       T00640005 10152 20061
METAR KANK 271135Z AUTO 00000KT 10SM CLR 07/01 A3035 RMK AO1
       T00710007

METAR KMYP 271215Z AUTO 27018KT 10SM CLR 06/M08 A3062 RMK AO2
METAR KMYP 271156Z AUTO 26015KT 10SM CLR 05/M08 A3062 RMK AO2
METAR KMYP 271135Z AUTO 25016KT 10SM CLR 05/M08 A3062 RMK AO2


KTEX 271120Z 2712/2812 VRB03KT P6SM SCT250
     FM271700 23015G25KT P6SM FEW100 SCT250
     FM280300 18009KT P6SM FEW100 SCT200
METAR KTEX 271215Z AUTO 15004KT 10SM SCT110 10/M07 A3037 RMK AO2
METAR KTEX 271155Z AUTO 13005KT 10SM CLR 09/M06 A3037 RMK AO2
METAR KTEX 271135Z AUTO 13005KT 10SM CLR 10/M07 A3036 RMK AO2

METAR K04V 271215Z AUTO 30007KT 10SM 05/M04 A3030 RMK AO2
METAR K04V 271155Z AUTO 30009KT 10SM 06/M04 A3029 RMK AO2
METAR K04V 271135Z AUTO 31009KT 10SM 06/M04 A3029 RMK AO2

METAR KCEZ 271153Z AUTO VRB04KT 10SM CLR 05/M03 A3016 RMK AO2 SLP149
       T00501028 10111 20039 53004
METAR KCEZ 271053Z AUTO 04003KT 10SM CLR 04/M03 A3015 RMK AO2 SLP145
       T00391033
METAR KCEZ 270953Z AUTO 00000KT 10SM CLR 07/M04 A3014 RMK AO2 SLP137
       T00721044

KDRO 271120Z 2712/2812 VRB03KT P6SM SKC
     FM271800 26015G25KT P6SM SKC
     FM280300 28012KT P6SM SKC
METAR KDRO 271153Z AUTO 00000KT 10SM CLR 08/M06 A3022 RMK AO2 SLP154
       T00781061 10122 20033 51008
METAR KDRO 271053Z AUTO 00000KT 10SM CLR 06/M07 A3021 RMK AO2 SLP153
       T00561067
METAR KDRO 270953Z AUTO 00000KT 10SM CLR 07/M06 A3021 RMK AO2 SLP149
       T00721056

METAR KPSO 271215Z AUTO 27003KT 10SM CLR 05/M07 A3031 RMK AO2
       T00451072
METAR KPSO 271155Z AUTO 00000KT 10SM CLR 06/M09 A3030 RMK AO2 T00551086
       10111 20040
METAR KPSO 271135Z AUTO 00000KT 10SM CLR 05/M09 A3029 RMK AO2
       T00451086

METAR KCPW 271215Z AUTO 23011G16KT 10SM CLR 06/M13 A3059 RMK AO2
METAR KCPW 271155Z AUTO 25011G16KT 10SM CLR 06/M13 A3059 RMK AO2
METAR KCPW 271135Z AUTO 25011KT 10SM CLR 06/M13 A3059 RMK AO2

KALS 271127Z 2712/2812 VRB05KT P6SM SCT250
     FM271700 20012G22KT P6SM FEW140 SCT250
     FM272000 24020G30KT P6SM SCT100 SCT200
     FM280200 20010KT P6SM FEW250
     FM280400 17008KT P6SM FEW250
METAR KALS 271152Z AUTO 11004KT 10SM CLR 03/M01 A3026 RMK AO2 SLP171
       T00281006 10122 20028 53004
METAR KALS 271052Z AUTO 00000KT 10SM CLR 05/M01 A3025 RMK AO2 SLP161
       T00501011
METAR KALS 270952Z AUTO 14004KT 10SM CLR 04/01 A3024 RMK AO2 SLP163
       T00390006

Sunrise/Sunset for 05/27/2022
Vail    - 05:42:00 MDT / 20:23:16 MDT
Durango - 05:54:35 MDT / 20:22:47 MDT
Alamosa - 05:46:06 MDT / 20:15:17 MDT

Grand Junction (KGJX) 05/27/22 12:04 UTC
Radar VAD winds      Height      Dir/Spd(kt)
                  15000 FT MSL...237/026
                  14500 FT MSL...252/017
                  14000 FT MSL...238/028
                  13000 FT MSL...237/030
                  12900 FT MSL...239/032
                  12000 FT MSL...239/030
                  11100 FT MSL...232/034
                  11000 FT MSL...241/028
                  10400 FT MSL...243/027
                  10300 FT MSL...233/030
                  10100 FT MSL...246/027

Grand Junction Aviation Discussion
Issued at 0958 UTC Friday, May 27, 2022

.AVIATION...(For the 12Z TAFS through 12Z Saturday morning)
Issued at 357 AM MDT Fri May 27 2022
VFR pattern persists through tonight with southwest winds
increasing throughout the day. Peak wind gusts from 25 to 35 kts
will occur between 18Z and 21Z this evening. Stronger winds are
expected on Saturday.


* * * * * Arizona * * * * *

KPGA 271120Z 2712/2812 VRB06KT P6SM SKC
     FM271600 26010KT P6SM FEW250
     FM272000 23010G20KT P6SM SCT250
     FM280300 21007KT P6SM FEW150 SCT250
METAR KPGA 271153Z AUTO 20006KT 10SM CLR 21/M05 A3003 RMK AO2 SLP098
       T02061050 10294 20189 53008
METAR KPGA 271053Z AUTO 15005KT 10SM CLR 22/M06 A3002 RMK AO2 SLP094
       T02171061
METAR KPGA 270953Z AUTO 16004KT 10SM CLR 23/M06 A3001 RMK AO2 SLP088
       T02281061

METAR KRQE 271153Z AUTO VRB03KT 10SM CLR 09/M07 A3025 RMK AO2 SLP127
       T00891067 10172 20083 53008
METAR KRQE 271053Z AUTO 00000KT 10SM CLR 11/M06 A3023 RMK AO2 SLP115
       T01111061
METAR KRQE 270953Z AUTO 00000KT 10SM CLR 15/M06 A3022 RMK AO2 SLP100
       T01501061

Flagstaff (KFSX) 05/27/22 12:16 UTC
Radar VAD winds      Height      Dir/Spd(kt)
                  10000 FT MSL...240/017
                   9000 FT MSL...241/019
                   8500 FT MSL...235/013
                   8000 FT MSL...267/018
                   7800 FT MSL...266/017
                   7400 FT MSL...231/011
                   7300 FT MSL...271/010

Flagstaff Aviation Discussion
Issued at 1024 UTC Friday, May 27, 2022

.AVIATION...For the 12Z TAF package...Expect VFR conditions over the
next 24 hours under A few/scattered mid to high level clouds.
Southwest winds will climb to 10-20 kts gusting to near 25 kts by
midday, lasting until the early evening. Winds diminishing to 5-15
kts tonight with gusts to 25 kts northeast of terrain features.
Aviation discussion not updated for TAF amendments.


* * * * * Utah * * * * *

KSLC 271120Z 2712/2818 15008KT P6SM SCT100
     FM271800 32012KT P6SM SCT070 BKN100
     FM280500 17009KT P6SM OVC070
METAR KSLC 271154Z 01006KT 10SM FEW100 SCT140 BKN200 22/05 A2998 RMK AO2
       SLP089 T02220050 10272 20211 51029
METAR KSLC 271054Z 28012G17KT 10SM FEW130 FEW200 23/04 A2996 RMK AO2
       SLP081 T02330044
METAR KSLC 270954Z 26007KT 10SM FEW130 FEW200 24/02 A2993 RMK AO2 SLP071
       T02440017

KVEL 271120Z 2712/2812 30004KT P6SM FEW150 SCT250
     FM271900 24015G25KT P6SM SCT120 BKN250
     FM280200 27010G20KT P6SM SCT120 BKN200
METAR KVEL 271153Z AUTO 25003KT 10SM CLR 12/02 A3002 RMK AO2 SLP104
       T01220017 10183 20111 53006
METAR KVEL 271053Z AUTO 30004KT 10SM CLR 12/00 A3001 RMK AO2 SLP097
       T01220000
METAR KVEL 270953Z AUTO 28006KT 10SM CLR 13/01 A3000 RMK AO2 SLP095
       T01330006

METAR KPUC 271153Z AUTO 35007KT 10SM CLR 14/M06 A3005 RMK AO2 SLP098
       T01391056 10189 20117 50003
METAR KPUC 271053Z AUTO 01006KT 10SM CLR 12/M05 A3006 RMK AO2 SLP102
       T01221050
METAR KPUC 270953Z AUTO 00000KT 10SM CLR 14/M05 A3005 RMK AO2 SLP090
       T01441050

KCNY 271120Z 2712/2812 VRB04KT P6SM FEW150 SCT250
     FM271400 21008KT P6SM FEW150 SCT250
     FM271800 23015G26KT P6SM FEW150 SCT250
     FM280200 26008KT P6SM SCT150 BKN250
METAR KCNY 271153Z AUTO 05004KT 10SM CLR 16/M09 A2998 RMK AO2 SLP092
       T01611089 10222 20150 53008
METAR KCNY 271053Z AUTO 00000KT 10SM CLR 16/M09 A2997 RMK AO2 SLP090
       T01561089
METAR KCNY 270953Z AUTO 00000KT 10SM CLR 19/M09 A2996 RMK AO2 SLP079
       T01941089


Salt Lake City (KMTX) 05/27/22 12:16 UTC
Radar VAD winds      Height      Dir/Spd(kt)
                  35000 FT MSL...164/000
                  30000 FT MSL...222/037
                  28000 FT MSL...221/042
                  28000 FT MSL...360/004
                  26000 FT MSL...227/042
                  25000 FT MSL...232/042
                  24000 FT MSL...234/046
                  22000 FT MSL...235/047
                  20400 FT MSL...259/016
                  20000 FT MSL...236/048
                  19000 FT MSL...235/046
                  18000 FT MSL...218/042
                  17000 FT MSL...202/038
                  16000 FT MSL...223/041
                  15500 FT MSL...222/035
                  15000 FT MSL...241/038
                  14000 FT MSL...242/033
                  13600 FT MSL...247/042
                  13000 FT MSL...262/036
                  12100 FT MSL...249/029
                  12000 FT MSL...247/031
                  11000 FT MSL...242/030
                  11000 FT MSL...244/029
                  10000 FT MSL...255/025
                   9900 FT MSL...257/022
                   9100 FT MSL...268/024
                   9000 FT MSL...272/024
                   8400 FT MSL...274/023
                   8000 FT MSL...284/024
                   7700 FT MSL...286/022
                   7000 FT MSL...312/013
                   6900 FT MSL...320/013
                   6900 FT MSL...317/017
                   6600 FT MSL...327/012

Salt Lake City Aviation Discussion
Issued at 0922 UTC Friday, May 27, 2022

.AVIATION...KSLC...Light winds this morning are expected with a
shift out of the northwest around 18Z. VFR conditions are forecast
but look for CIGs to gradually lower and become OVC by the
overnight hours. The best chance for MVFR CIG/VIS is after 12Z
Saturday.
.REST OF UTAH AND SOUTHWEST WYOMING...Northern Utah and SW
WY locations are expected to see diurnal variations to winds today.
VCSH or VCTS can`t be ruled out at any terminal location from this
afternoon into the evening hours but chances for rain on station is
best from ENV to LGU Saturday morning. MVFR CIG and/or VIS are thus
probable in these locations/times. Across southern Utah and into
central Utah locations, an increase in southwest winds are forecast
mid-afternoon which should persist into the overnight hours.


* * * * * Wyoming * * * * *

KEVW 271120Z 2712/2812 23012G22KT P6SM FEW120 SCT250
     FM280400 14006KT P6SM SCT080 BKN250
     FM281000 17006KT P6SM OVC080=
METAR KEVW 271153Z AUTO 23013KT 10SM CLR 13/M03 A3011 RMK AO2 PK WND
       22027/1125 SLP097 7//// T01331028 10156 20117 53013
METAR KEVW 271053Z AUTO 21014KT 10SM CLR 13/M04 A3008 RMK AO2 SLP085
       T01331039
METAR KEVW 270953Z AUTO 24008KT 10SM CLR 13/M04 A3008 RMK AO2 SLP087
       T01281039

KRKS 271121Z 2712/2812 18006KT P6SM SCT120
     FM271700 26020G30KT P6SM SCT120
     FM272100 26018G28KT P6SM VCSH SCT100 BKN140
     FM280200 25011KT P6SM BKN110
METAR KRKS 271154Z AUTO 34009KT 10SM CLR 12/M03 A3007 RMK AO2 SLP104
       T01171028 10178 20083 53002 $
METAR KRKS 271054Z AUTO 23009KT 10SM CLR 15/M04 A3004 RMK AO2 SLP086
       T01501044 $
METAR KRKS 270954Z AUTO 23013KT 10SM CLR 16/M04 A3005 RMK AO2 SLP083
       T01611039

KRWL 271121Z 2712/2812 22008KT P6SM FEW250
     FM271500 25020G30KT P6SM SCT250
     FM272100 26020G30KT P6SM VCSH SCT200
     FM280100 24010KT P6SM BKN200
METAR KRWL 271153Z AUTO 23010G18KT 10SM CLR 15/M03 A3006 RMK AO2 SLP078
       T01501033 10167 20083 56010
METAR KRWL 271053Z AUTO 00000KT 10SM CLR 13/M02 A3006 RMK AO2 SLP086
       T01281022
METAR KRWL 270953Z AUTO 02003KT 10SM CLR 11/M01 A3007 RMK AO2 SLP093
       T01061006

KLAR 271121Z 2712/2812 18010KT P6SM FEW250
     FM271500 26020G30KT P6SM SCT250
     FM280200 21008KT P6SM SCT250
METAR KLAR 271153Z AUTO 18009KT 10SM CLR 06/01 A3012 RMK AO2 SLP107
       T00610011 10094 20061 56008
METAR KLAR 271053Z AUTO 18009KT 10SM CLR 08/01 A3012 RMK AO2 SLP107
       T00780006
METAR KLAR 270953Z AUTO 16010KT 10SM CLR 07/01 A3013 RMK AO2 SLP111
       T00720006

KCYS 271121Z 2712/2812 26008KT P6SM FEW250
     FM271800 25015G25KT P6SM SCT200
     FM280200 27008KT P6SM SCT250
METAR KCYS 271153Z 28005KT 10SM CLR 10/01 A3006 RMK AO2 SLP104 T01000011
       10117 20083 56008
METAR KCYS 271053Z AUTO 28009KT 10SM CLR 09/01 A3007 RMK AO2 SLP107
       T00940011
METAR KCYS 270953Z AUTO 29009KT 10SM CLR 09/01 A3008 RMK AO2 SLP110
       T00890011

Riverton (KRIW) 05/27/22 12:11 UTC
Radar VAD winds      Height      Dir/Spd(kt)
                  14000 FT MSL...243/034
                  13000 FT MSL...227/008
                  10000 FT MSL...199/030
                   9000 FT MSL...233/019
                   8100 FT MSL...157/018
                   8000 FT MSL...178/021
                   7300 FT MSL...158/018
                   7000 FT MSL...174/017
                   6700 FT MSL...167/011
                   6200 FT MSL...149/010
                   6000 FT MSL...141/007
                   5900 FT MSL...177/007

Cheyenne (KCYS) 05/27/22 12:17 UTC
Radar VAD winds      Height      Dir/Spd(kt)
                  13000 FT MSL...246/027
                  10000 FT MSL...244/016
                   9000 FT MSL...189/023
                   8000 FT MSL...194/019
                   7300 FT MSL...190/017

Riverton Aviation Discussion
Issued at 1002 UTC Friday, May 27, 2022

.AVIATION...(For the 12Z TAFS through 12Z Saturday morning)
Issued at 306 AM MDT Fri May 27 2022
Isolated showers will occur overnight in northwest and northern
Wyoming. Some wind gusts to 35 mph will occur. Today will see
scattered showers and some thunderstorms over the region after 19Z
through 12Z Saturday. Wind gusts to 45 knots will be possible with
some storms along with small hail and brief heavy rain. VFR
conditions will prevail at the terminal sites through the period.
Brief MVFR conditions will occur at times over the region, mainly in
storms. Gusty wind will be common at many terminal sites today into
the evening hours.
Please see the Aviation Weather Center and/or CWSU ZDV and ZLC for
the latest information on icing and turbulence forecasts.

Cheyenne Aviation Discussion
Issued at 1126 UTC Friday, May 27, 2022

.AVIATION...(For the 12Z TAFS through 12Z Saturday morning)
Issued at 524 AM MDT Fri May 27 2022
VFR conditions expected during the day. Gusty winds are expected
this afternoon with gusts up to 30 kts possible. Scattered
showers and thunderstorms are possible this afternoon. Gusty and
erratic winds are likely in these storms.


* * * * * Nebraska * * * * *

METAR KIBM 271215Z AUTO 00000KT 10SM CLR 08/04 A3001 RMK AO2
       T00770041
METAR KIBM 271155Z AUTO 25005KT 10SM CLR 06/03 A3001 RMK AO2 T00640029
       10123 20051
METAR KIBM 271135Z AUTO 00000KT 10SM CLR 06/03 A3001 RMK AO2
       T00550026

KSNY 271121Z 2712/2812 20006KT P6SM FEW250
     FM271700 20015G25KT P6SM FEW250
     FM272300 18010KT P6SM BKN200
METAR KSNY 271153Z AUTO 30006KT 10SM CLR 07/03 A2997 RMK AO2 SLP113
       T00670033 10122 20039 56005
METAR KSNY 271053Z AUTO 33003KT 10SM CLR 06/03 A2998 RMK AO2 SLP113
       T00560028
METAR KSNY 270953Z AUTO 00000KT 10SM CLR 06/02 A2998 RMK AO2 SLP115
       T00560022

METAR KOGA 271215Z AUTO 00000KT 10SM CLR 09/07 A2998 RMK AO2
       T00860071
METAR KOGA 271155Z AUTO 00000KT 10SM CLR 07/05 A2998 RMK AO2 T00650051
       10123 20061
METAR KOGA 271135Z AUTO 00000KT 10SM CLR 06/05 A2998 RMK AO2
       T00620050

METAR KIML 271153Z AUTO 15003KT 10SM CLR 08/06 A2998 RMK AO2 SLP133
       T00830056 10150 20061 55002
METAR KIML 271053Z AUTO 00000KT 10SM CLR 09/06 A2998 RMK AO2 SLP130
       T00940061
METAR KIML 270953Z AUTO 00000KT 10SM CLR 11/06 A2998 RMK AO2 SLP129
       T01110061

KMCK 271120Z 2712/2812 VRB05KT P6SM SKC
     FM271700 16012KT P6SM FEW250
     FM280200 14015KT P6SM SCT250
     FM280400 14011KT P6SM BKN250 WS020/19035KT
     FM280700 VRB05KT P6SM SCT250
METAR KMCK 271153Z AUTO 12004KT 10SM CLR 09/07 A2998 RMK AO2 SLP137
       T00890067 10161 20089 54000
METAR KMCK 271053Z AUTO 00000KT 10SM CLR 09/06 A2998 RMK AO2 SLP136
       T00940061
METAR KMCK 270953Z AUTO 00000KT 10SM CLR 13/07 A2998 RMK AO2 SLP134
       T01280067

North Platte (KLNX) 05/27/22 12:08 UTC
Radar VAD winds      Height      Dir/Spd(kt)
                   7600 FT MSL...213/014
                   7000 FT MSL...213/013
                   6000 FT MSL...198/019
                   5900 FT MSL...190/018
                   5000 FT MSL...175/018
                   4100 FT MSL...164/017
                   4000 FT MSL...156/019
                   4000 FT MSL...156/019
                   3400 FT MSL...161/016

North Platte Aviation Discussion
Issued at 1146 UTC Friday, May 27, 2022

.AVIATION...(For the 12Z TAFS through 12Z Saturday morning)
Issued at 644 AM CDT Fri May 27 2022
VFR conditions will prevail through the TAF period across all of
western and north central Nebraska. Some mid-level BKN clouds are
expected late this afternoon and evening across portions of the
area, otherwise just a few high cirrus clouds. Winds will
increase from the south-southeast by late morning into this
afternoon.


* * * * * Kansas * * * * *

KGLD 271120Z 2712/2812 22010KT P6SM SKC
     FM271700 18010G18KT P6SM BKN250
     FM280600 22009KT P6SM FEW250
METAR KGLD 271153Z AUTO 24010KT 10SM CLR 14/06 A2999 RMK AO2 SLP116
       T01390056 10167 20106 55004
METAR KGLD 271053Z AUTO 22011KT 10SM CLR 14/06 A2999 RMK AO2 SLP114
       T01440056
METAR KGLD 270953Z AUTO 21008KT 10SM CLR 13/06 A2999 RMK AO2 SLP118
       T01330061

KGCK 271120Z 2712/2812 20010KT P6SM SKC
     FM271600 20016G25KT P6SM SKC
     FM280000 17014G22KT P6SM FEW120
     FM280900 18008KT P6SM FEW200
METAR KGCK 271154Z AUTO 16005KT 10SM CLR 09/08 A3003 RMK AO2 SLP149
       T00940083 10133 20083 53004
METAR KGCK 271054Z AUTO 18007KT 10SM CLR 09/07 A3003 RMK AO2 SLP147
       T00890072
METAR KGCK 270954Z AUTO 21005KT 10SM CLR 11/08 A3002 RMK AO2 SLP143
       T01060078

METAR KLBL 271156Z AUTO 20008KT 10SM CLR 12/08 A3006 RMK AO2 SLP157
       T01170083 10139 20094 53003
METAR KLBL 271056Z AUTO 19008KT 10SM CLR 09/07 A3005 RMK AO2 SLP153
       T00940072
METAR KLBL 270956Z AUTO 21005KT 10SM CLR 10/08 A3005 RMK AO2 SLP152
       T01000078

METAR KEHA 271215Z AUTO 22016KT 10SM CLR 17/05 A3010 RMK AO2
       T01680053
METAR KEHA 271155Z AUTO 22018KT 10SM CLR 16/05 A3009 RMK AO2 T01620055
       10164 20127
METAR KEHA 271135Z AUTO 22017KT 10SM CLR 16/06 A3009 RMK AO2
       T01570057

Goodland (KGLD) 05/27/22 12:16 UTC
Radar VAD winds      Height      Dir/Spd(kt)
                   9000 FT MSL...191/012
                   8300 FT MSL...169/015
                   8000 FT MSL...180/014
                   7000 FT MSL...208/018
                   6400 FT MSL...212/020
                   6000 FT MSL...212/024
                   5000 FT MSL...220/032
                   4800 FT MSL...221/036
                   4600 FT MSL...218/039
                   4100 FT MSL...223/039
                   4000 FT MSL...227/036

Dodge City (KDDC) 05/27/22 12:13 UTC
Radar VAD winds      Height      Dir/Spd(kt)
                  17000 FT MSL...177/001
                  15000 FT MSL...267/003
                  14000 FT MSL...146/003
                  13900 FT MSL...151/003
                  13000 FT MSL...283/005
                  12000 FT MSL...230/001
                   9800 FT MSL...289/007
                   7100 FT MSL...190/013
                   7000 FT MSL...203/030
                   6000 FT MSL...210/017
                   6000 FT MSL...209/016
                   5100 FT MSL...203/022
                   5000 FT MSL...198/022
                   4400 FT MSL...202/023
                   4000 FT MSL...201/025
                   3700 FT MSL...199/020
                   3200 FT MSL...209/019

Goodland Aviation Discussion
Issued at 1101 UTC Friday, May 27, 2022

.AVIATION...(For the 12Z TAFS through 12Z Saturday morning)
Issued at 501 AM MDT Fri May 27 2022
For KGLD, VFR conditions expected through the forecast period.
Winds south-southwest 10-20kts, strongest after 17z.
For KMCK, VFR conditions expected through the forecast period.
Winds light/variable through 17z, then southwest 10-15kts. By 07z
Saturday, light/variable. LLWS 04z-07z Saturday 190@35kts.

Dodge City Aviation Discussion
Issued at 1102 UTC Friday, May 27, 2022

.AVIATION...(For the 12Z TAFS through 12Z Saturday morning)
Issued at 556 AM CDT Fri May 27 2022
A surface trough will form in the lee of the Rockies today. This
will result in south winds increasing to 13-18 kts with daytime
heating. Winds will drop off a little late tonight. A stray
thunderstorm could affect KGCK after 03z. VFR conditions will
persist.


* * * * * Texas/Oklahoma * * * * *

KGUY 271120Z 2712/2812 21010KT P6SM SKC
     FM271400 20020G30KT P6SM SKC
     FM280100 18012KT P6SM FEW200=
METAR KGUY 271153Z AUTO 24004KT 10SM CLR 14/08 A3006 RMK AO2 SLP137
       T01390078 10167 20128 53004
METAR KGUY 271053Z AUTO 23006KT 10SM CLR 13/08 A3005 RMK AO2 SLP136
       T01330078
METAR KGUY 270953Z AUTO 23004KT 10SM CLR 13/08 A3004 RMK AO2 SLP131
       T01280078

KDHT 271120Z 2712/2812 20010KT P6SM SKC
     FM271500 21020G30KT P6SM SKC
     FM280100 19013KT P6SM FEW200
METAR KDHT 271153Z AUTO 25008KT 9SM CLR 11/06 A3013 RMK AO2 SLP156
       T01060061 10167 20100 53005
METAR KDHT 271053Z AUTO 21005KT 10SM CLR 11/06 A3012 RMK AO2 SLP152
       T01060056
METAR KDHT 270953Z AUTO 22006KT 10SM CLR 11/06 A3011 RMK AO2 SLP150
       T01060061

Amarillo (KAMA) 05/27/22 12:13 UTC
Radar VAD winds      Height      Dir/Spd(kt)
                  22000 FT MSL...341/001
                  20000 FT MSL...268/003
                  19000 FT MSL...289/002
                  18000 FT MSL...298/004
                  17000 FT MSL...310/004
                  16000 FT MSL...276/006
                  15000 FT MSL...291/012
                  14000 FT MSL...283/020
                  13000 FT MSL...282/026
                  12000 FT MSL...273/025
                  11500 FT MSL...265/028
                  11000 FT MSL...267/027
                  10000 FT MSL...263/026
                   9900 FT MSL...263/026
                   9000 FT MSL...255/022
                   8100 FT MSL...239/020
                   8000 FT MSL...229/018
                   7000 FT MSL...216/024
                   6400 FT MSL...188/033
                   6000 FT MSL...183/035
                   5000 FT MSL...169/037
                   4700 FT MSL...169/037
                   4600 FT MSL...168/039
                   4000 FT MSL...171/037
                   4000 FT MSL...174/036

Amarillo Aviation Discussion
Issued at 1123 UTC Friday, May 27, 2022

.AVIATION...12z TAFs...
VFR conditions are expected with this TAF cycle. Winds will
increase up to 15 to 20 kts over the next few hours with gusts up
to 30 kts. Winds will remain out of the south today and will begin
to slow down around sunset this evening. Low level wind shear is
possible for KAMA and KGUY tonight. Confidence in exact timing
and western extent of the low level wind shear is not high enough
to include in the TAFs at this time.
Muscha


* * * * * New Mexico * * * * *

KFMN 271120Z 2712/2812 08006KT P6SM SKC
     FM271900 26015G25KT P6SM SKC
     FM280200 28011KT P6SM FEW150
METAR KFMN 271153Z 08006KT 10SM CLR 09/M08 A3014 RMK AO2 SLP152
       T00891078 10156 20089 53007
METAR KFMN 271053Z AUTO 36004KT 10SM CLR 10/M11 A3013 RMK AO2 SLP147
       T01001106
METAR KFMN 270953Z AUTO 08005KT 10SM CLR 12/M08 A3011 RMK AO2 SLP138
       T01221078

METAR KSKX 271156Z AUTO 03007KT 10SM CLR 05/M13 A3028 RMK AO2 SLP193
       T00501128 10133 20039 53005
METAR KSKX 271056Z AUTO 01007KT 10SM CLR 04/M14 A3027 RMK AO2 SLP190
       T00441139
METAR KSKX 270956Z AUTO 01004KT 10SM CLR 07/M13 A3026 RMK AO2 SLP185
       T00671133

KLVS 271120Z 2712/2812 16011KT P6SM SKC
     FM271500 19011KT 6SM FU SKC
     FM271900 22014G22KT P6SM FEW140
     FM272200 24020G30KT P6SM FEW130
     FM280000 VRB18G28KT P6SM VCSH SCT120
     FM280300 20008KT P6SM BKN130
METAR KLVS 271153Z AUTO 06003KT 10SM CLR 07/M06 A3025 RMK AO2 SLP148
       T00721061 10139 20072 53004
METAR KLVS 271053Z AUTO 17006KT 10SM CLR 09/M07 A3024 RMK AO2 SLP140
       T00941067
METAR KLVS 270953Z AUTO 06008KT 10SM CLR 09/M07 A3024 RMK AO2 SLP140
       T00891067

METAR KRTN 271153Z AUTO 36006KT 10SM CLR 09/00 A3022 RMK AO2 SLP152
       60000 T00890000 10144 20072 53003
METAR KRTN 271053Z AUTO 36006KT 10SM CLR 09/00 A3021 RMK AO2 SLP145
       T00940000
METAR KRTN 270953Z AUTO 02005KT 10SM CLR 08/01 A3020 RMK AO2 SLP145
       T00830006

METAR KCAO 271155Z AUTO 23010KT 10SM CLR 12/04 A3014 RMK AO2 SLP151
       T01220039 10150 20122 53004
METAR KCAO 271055Z AUTO 22017G22KT 10SM CLR 13/04 A3013 RMK AO2 SLP143
       T01330039
METAR KCAO 270955Z AUTO 22010KT 10SM CLR 13/04 A3013 RMK AO2 SLP145
       T01280039

Albuquerque Aviation Discussion
Issued at 1116 UTC Friday, May 27, 2022

.AVIATION...
12Z TAF CYCLE
Upper ridge over NM with sfc lee trough developing. Swly winds
gusting to around 30kt aft 18Z along the central mt chain. High based
cumulus to develop over the higher terrain aft 18Z with potential
for wdly sct virga and isold tstms with gusty variable winds to
around 45kt and bldu.

* * * * * Winds and Temperatures Aloft Forecasts * * * * *

DATA BASED ON 270000Z
VALID 270600Z   FOR USE 0500-0900Z. TEMPS NEG ABV 24000
FT  3000    6000   9000    12000   18000   24000  30000  34000  39000
SLC      2118    2129+17 2227+09 2226-12 2330-25 233041 232851 222960
BCE                      2221+08 2228-10 2326-24 222841 212851 222258
LND              2115+16 2416+08 2524-12 2635-25 283140 263650 253461
RKS              2216    2312+08 2526-11 2631-24 262840 253050 253561
GJT              1911+17 2214+09 2320-11 2526-23 242540 243050 252260
FMN              2407+18 2411+10 2421-11 2424-23 232740 232450 242160
ABQ              2011+18 2211+10 2615-10 2411-22 251439 241249 251660
MBW              2010    2415+07 3123-12 3027-24 293340 293950 293560
DEN              2308+15 3012+07 2926-11 2929-23 303039 303250 313560
PUB              2018+14 2518+08 2826-11 3034-23 312939 313349 313259
ALS                      2613+09 2724-10 2827-23 292740 292649 292159
TCC      1916    2215+15 2722+09 2915-09 3314-23 332339 312449 322859
BFF      1513    2005+12 2919+05 3128-12 3233-24 303440 302949 313060
GLD      2218    2816+12 3227+05 3232-11 3137-23 314240 324650 323058
GCK      2514+17 3323+12 3334+06 3137-11 3242-24 324440 324850 323957
GAG      3212+17 3426+11 3535+05 3345-11 3343-23 333539 323749 323758
AMA      1910    2912+13 3320+07 3436-10 3428-23 333039 323349 323759
---------------------------------------------------------------------

DATA BASED ON 270000Z
VALID 271200Z   FOR USE 0900-1800Z. TEMPS NEG ABV 24000
FT  3000    6000   9000    12000   18000   24000  30000  34000  39000
SLC      9900    2812+10 2425+05 2337-12 2441-25 243141 233051 233359
BCE                      2616+07 2425-11 2330-25 233142 242951 252956
LND              2531+15 2527+07 2331-12 2433-24 243141 233252 234262
RKS              2633    2528+07 2331-12 2331-25 243141 243251 223961
GJT              2422+16 2424+08 2426-12 2431-24 233341 223551 223358
FMN              2409+17 2612+09 2525-10 2627-24 243141 233551 243657
ABQ              2810+17 2910+10 2524-10 2719-23 242240 242450 262859
MBW              2421    2629+08 2623-11 2720-24 252641 253151 254061
DEN              2808+16 2816+08 3020-11 2822-23 262740 263350 253060
PUB              2917+17 2917+09 2919-10 2826-23 272840 262950 262661
ALS                      2721+09 2725-11 2627-23 243040 232850 222661
TCC      2032    2424+14 2819+09 2817-10 3017-23 292340 292250 272159
BFF      1815    2213+14 2920+07 2922-11 2922-24 292241 283151 272961
GLD      2317    2608+14 2906+05 3118-11 3130-24 313740 313550 303360
GCK      2421+20 2811+13 3113+05 3131-12 3135-23 324240 323850 313159
GAG      2513+18 3112+11 3323+05 3142-12 3243-23 334240 333749 322957
AMA      2125    2614+14 2816+06 3129-11 3135-24 323439 312949 302459
---------------------------------------------------------------------

DATA BASED ON 270000Z
VALID 280000Z   FOR USE 1800-0500Z. TEMPS NEG ABV 24000
FT  3000    6000   9000    12000   18000   24000  30000  34000  39000
SLC      9900    2211+14 2223+06 2338-12 2449-24 274338 274649 274761
BCE                      2421+08 2429-10 2425-23 293537 303649 314060
LND              2809+14 2615+05 2541-13 2542-24 263340 274651 285461
RKS              2619    2621+06 2541-12 2543-24 263239 284750 294661
GJT              2415+18 2321+10 2327-11 2530-25 293040 314450 304059
FMN              2512+19 2513+10 2433-10 2531-24 282640 273650 274058
ABQ              2112+18 2310+09 2719-10 2628-22 243140 263650 264957
MBW              2624    2524+08 2526-12 2536-25 263641 274351 274359
DEN              9900+18 2806+09 2621-10 2534-25 243841 243951 264060
PUB              2813+17 2516+09 2428-10 2537-24 263241 272251 274558
ALS                      2620+11 2628-09 2534-24 253642 273349 274257
TCC      2218    2319+20 2320+11 2624-10 2825-23 283540 273849 284355
BFF      2514    2721+17 2724+09 2635-11 2637-25 243441 242951 263358
GLD      1717    2015+17 2410+09 2928-10 2828-23 273641 274651 284558
GCK      1921+25 2021+16 2717+09 2931-10 3032-23 283641 273650 273858
GAG      2029+21 2429+14 3021+09 3126-10 3026-23 282940 273150 293958
AMA      2025    2126+17 2522+09 2924-10 3026-23 282840 272949 293857
---------------------------------------------------------------------

This product is updated automatically at approximately 10, 30 and 50
minutes after each hour, 24 hours per day, 7 days per week.  It may
become unavailable at times due to system outages without prior notice.
Users are advised to check the time at the top of the product to ensure
that it is current.  Furthermore, content and format of the product are
subject to change without prior notice.

Comments and suggestions are welcome and should be directed to one of
the addresses or phone numbers shown at the bottom of this page.  In
order to expedite a response to comments or suggestions, be sure to
mention your interest in the hot-air balloon forecast.


USA.gov is the U.S. government's official web portal to all federal, state and local government web resources and services.